sensor_id;sensor_type;location;lat;lon;timestamp;pressure;altitude;pressure_sealevel;temperature;humidity
52839;BME280;39219;53.678;9.856;2023-05-21T00:01:08;77218.75;;;-147.77;71.85
52839;BME280;39219;53.678;9.856;2023-05-21T00:03:34;77228.84;;;-147.77;71.91
52839;BME280;39219;53.678;9.856;2023-05-21T00:06:01;77222.78;;;-147.77;71.99
52839;BME280;39219;53.678;9.856;2023-05-21T00:08:28;77228.84;;;-147.77;71.73
52839;BME280;39219;53.678;9.856;2023-05-21T00:10:56;77228.84;;;-147.77;72.16
52839;BME280;39219;53.678;9.856;2023-05-21T00:13:23;77241.00;;;-147.77;72.44
52839;BME280;39219;53.678;9.856;2023-05-21T00:15:49;77249.09;;;-147.77;72.82
52839;BME280;39219;53.678;9.856;2023-05-21T00:18:15;77245.03;;;-147.77;72.73
52839;BME280;39219;53.678;9.856;2023-05-21T00:20:42;77241.00;;;-147.77;72.75
52839;BME280;39219;53.678;9.856;2023-05-21T00:23:09;77255.16;;;-147.77;73.09
52839;BME280;39219;53.678;9.856;2023-05-21T00:25:36;77265.28;;;-147.77;73.16
52839;BME280;39219;53.678;9.856;2023-05-21T00:28:04;77261.22;;;-147.77;73.57
52839;BME280;39219;53.678;9.856;2023-05-21T00:30:30;77267.28;;;-147.77;73.81
52839;BME280;39219;53.678;9.856;2023-05-21T00:32:57;77275.38;;;-147.77;74.05
52839;BME280;39219;53.678;9.856;2023-05-21T00:35:26;77291.56;;;-147.77;74.52
52839;BME280;39219;53.678;9.856;2023-05-21T00:37:53;77283.47;;;-147.77;74.57
52839;BME280;39219;53.678;9.856;2023-05-21T00:40:19;77283.47;;;-147.77;74.50
52839;BME280;39219;53.678;9.856;2023-05-21T00:42:46;77287.53;;;-147.77;74.83
52839;BME280;39219;53.678;9.856;2023-05-21T00:45:15;77285.50;;;-147.77;75.19
52839;BME280;39219;53.678;9.856;2023-05-21T00:47:42;77295.63;;;-147.77;75.36
52839;BME280;39219;53.678;9.856;2023-05-21T00:50:10;77293.59;;;-147.77;75.71
52839;BME280;39219;53.678;9.856;2023-05-21T00:52:39;77297.66;;;-147.77;75.80
52839;BME280;39219;53.678;9.856;2023-05-21T00:55:07;77283.47;;;-147.77;75.59
52839;BME280;39219;53.678;9.856;2023-05-21T00:57:34;77279.44;;;-147.77;75.42
52839;BME280;39219;53.678;9.856;2023-05-21T01:00:01;77281.47;;;-147.77;75.35
52839;BME280;39219;53.678;9.856;2023-05-21T01:02:32;77281.47;;;-147.77;75.56
52839;BME280;39219;53.678;9.856;2023-05-21T01:05:01;77273.38;;;-147.77;75.40
52839;BME280;39219;53.678;9.856;2023-05-21T01:07:28;77281.47;;;-147.77;75.66
52839;BME280;39219;53.678;9.856;2023-05-21T01:09:55;77281.47;;;-147.77;75.89
52839;BME280;39219;53.678;9.856;2023-05-21T01:12:22;77289.56;;;-147.77;75.75
52839;BME280;39219;53.678;9.856;2023-05-21T01:14:48;77287.53;;;-147.77;76.05
52839;BME280;39219;53.678;9.856;2023-05-21T01:17:15;77289.56;;;-147.77;75.87
52839;BME280;39219;53.678;9.856;2023-05-21T01:19:43;77285.50;;;-147.77;76.35
52839;BME280;39219;53.678;9.856;2023-05-21T01:22:11;77289.56;;;-147.77;76.47
52839;BME280;39219;53.678;9.856;2023-05-21T01:24:39;77291.56;;;-147.77;76.49
52839;BME280;39219;53.678;9.856;2023-05-21T01:27:11;77287.53;;;-147.77;76.63
52839;BME280;39219;53.678;9.856;2023-05-21T01:29:38;77291.56;;;-147.77;76.76
52839;BME280;39219;53.678;9.856;2023-05-21T01:32:10;77291.56;;;-147.77;76.86
52839;BME280;39219;53.678;9.856;2023-05-21T01:34:39;77289.56;;;-147.77;76.93
52839;BME280;39219;53.678;9.856;2023-05-21T01:37:13;77289.56;;;-147.77;77.07
52839;BME280;39219;53.678;9.856;2023-05-21T01:39:43;77285.50;;;-147.77;77.08
52839;BME280;39219;53.678;9.856;2023-05-21T01:42:13;77293.59;;;-147.77;77.14
52839;BME280;39219;53.678;9.856;2023-05-21T01:44:41;77285.50;;;-147.77;77.40
52839;BME280;39219;53.678;9.856;2023-05-21T01:47:07;77289.56;;;-147.77;77.43
52839;BME280;39219;53.678;9.856;2023-05-21T01:49:35;77295.63;;;-147.77;77.72
52839;BME280;39219;53.678;9.856;2023-05-21T01:52:02;77301.69;;;-147.77;78.11
52839;BME280;39219;53.678;9.856;2023-05-21T01:54:29;77305.75;;;-147.77;78.58
52839;BME280;39219;53.678;9.856;2023-05-21T01:56:57;77295.63;;;-147.77;78.46
52839;BME280;39219;53.678;9.856;2023-05-21T01:59:24;77297.66;;;-147.77;78.60
52839;BME280;39219;53.678;9.856;2023-05-21T02:01:52;77285.50;;;-147.77;78.45
52839;BME280;39219;53.678;9.856;2023-05-21T02:04:18;77285.50;;;-147.77;78.88
52839;BME280;39219;53.678;9.856;2023-05-21T02:06:45;77289.56;;;-147.77;78.96
52839;BME280;39219;53.678;9.856;2023-05-21T02:09:11;77283.47;;;-147.77;79.10
52839;BME280;39219;53.678;9.856;2023-05-21T02:11:38;77291.56;;;-147.77;79.09
52839;BME280;39219;53.678;9.856;2023-05-21T02:14:06;77293.59;;;-147.77;79.47
52839;BME280;39219;53.678;9.856;2023-05-21T02:16:34;77289.56;;;-147.77;79.78
52839;BME280;39219;53.678;9.856;2023-05-21T02:19:02;77289.56;;;-147.77;79.78
52839;BME280;39219;53.678;9.856;2023-05-21T02:21:28;77289.56;;;-147.77;79.83
52839;BME280;39219;53.678;9.856;2023-05-21T02:23:55;77277.41;;;-147.77;80.29
52839;BME280;39219;53.678;9.856;2023-05-21T02:26:21;77279.44;;;-147.77;80.13
52839;BME280;39219;53.678;9.856;2023-05-21T02:28:48;77279.44;;;-147.77;80.64
52839;BME280;39219;53.678;9.856;2023-05-21T02:31:18;77265.28;;;-147.77;80.75
52839;BME280;39219;53.678;9.856;2023-05-21T02:33:44;77269.31;;;-147.77;80.82
52839;BME280;39219;53.678;9.856;2023-05-21T02:36:11;77269.31;;;-147.77;80.97
52839;BME280;39219;53.678;9.856;2023-05-21T02:38:39;77271.34;;;-147.77;81.46
52839;BME280;39219;53.678;9.856;2023-05-21T02:41:07;77265.28;;;-147.77;81.34
52839;BME280;39219;53.678;9.856;2023-05-21T02:43:34;77265.28;;;-147.77;81.19
52839;BME280;39219;53.678;9.856;2023-05-21T02:46:00;77269.31;;;-147.77;81.54
52839;BME280;39219;53.678;9.856;2023-05-21T02:48:28;77269.31;;;-147.77;81.70
52839;BME280;39219;53.678;9.856;2023-05-21T02:50:55;77271.34;;;-147.77;82.01
52839;BME280;39219;53.678;9.856;2023-05-21T02:53:21;77265.28;;;-147.77;82.09
52839;BME280;39219;53.678;9.856;2023-05-21T02:55:48;77281.47;;;-147.77;82.15
52839;BME280;39219;53.678;9.856;2023-05-21T02:58:14;77295.63;;;-147.77;82.68
52839;BME280;39219;53.678;9.856;2023-05-21T03:00:41;77295.63;;;-147.77;83.38
52839;BME280;39219;53.678;9.856;2023-05-21T03:03:07;77289.56;;;-147.77;83.83
52839;BME280;39219;53.678;9.856;2023-05-21T03:05:35;77293.59;;;-147.77;83.86
52839;BME280;39219;53.678;9.856;2023-05-21T03:08:01;77293.59;;;-147.77;83.98
52839;BME280;39219;53.678;9.856;2023-05-21T03:10:28;77299.66;;;-147.77;84.41
52839;BME280;39219;53.678;9.856;2023-05-21T03:12:54;77301.69;;;-147.77;84.41
52839;BME280;39219;53.678;9.856;2023-05-21T03:15:21;77301.69;;;-147.77;84.76
52839;BME280;39219;53.678;9.856;2023-05-21T03:17:48;77301.69;;;-147.77;85.52
52839;BME280;39219;53.678;9.856;2023-05-21T03:20:15;77297.66;;;-147.77;85.43
52839;BME280;39219;53.678;9.856;2023-05-21T03:22:44;77301.69;;;-147.77;85.93
52839;BME280;39219;53.678;9.856;2023-05-21T03:25:12;77289.56;;;-147.77;86.03
52839;BME280;39219;53.678;9.856;2023-05-21T03:27:38;77283.47;;;-147.77;86.23
52839;BME280;39219;53.678;9.856;2023-05-21T03:30:06;77279.44;;;-147.77;86.38
52839;BME280;39219;53.678;9.856;2023-05-21T03:32:33;77277.41;;;-147.77;86.17
52839;BME280;39219;53.678;9.856;2023-05-21T03:35:02;77269.31;;;-147.77;86.29
52839;BME280;39219;53.678;9.856;2023-05-21T03:37:29;77265.28;;;-147.77;86.40
52839;BME280;39219;53.678;9.856;2023-05-21T03:39:56;77253.13;;;-147.77;86.36
52839;BME280;39219;53.678;9.856;2023-05-21T03:42:23;77251.09;;;-147.77;86.31
52839;BME280;39219;53.678;9.856;2023-05-21T03:44:49;77251.09;;;-147.77;86.28
52839;BME280;39219;53.678;9.856;2023-05-21T03:47:16;77230.88;;;-147.77;86.38
52839;BME280;39219;53.678;9.856;2023-05-21T03:49:42;77238.97;;;-147.77;86.35
52839;BME280;39219;53.678;9.856;2023-05-21T03:52:09;77230.88;;;-147.77;86.47
52839;BME280;39219;53.678;9.856;2023-05-21T03:54:35;77218.75;;;-147.77;86.34
52839;BME280;39219;53.678;9.856;2023-05-21T03:57:03;77208.63;;;-147.77;86.04
52839;BME280;39219;53.678;9.856;2023-05-21T03:59:30;77190.41;;;-147.77;85.60
52839;BME280;39219;53.678;9.856;2023-05-21T04:01:56;77182.31;;;-147.77;85.59
52839;BME280;39219;53.678;9.856;2023-05-21T04:04:23;77176.25;;;-147.77;85.59
52839;BME280;39219;53.678;9.856;2023-05-21T04:06:50;77166.13;;;-147.77;84.89
52839;BME280;39219;53.678;9.856;2023-05-21T04:09:18;77151.97;;;-147.77;84.93
52839;BME280;39219;53.678;9.856;2023-05-21T04:11:45;77139.84;;;-147.77;84.19
52839;BME280;39219;53.678;9.856;2023-05-21T04:14:13;77131.75;;;-147.77;84.28
52839;BME280;39219;53.678;9.856;2023-05-21T04:16:39;77127.69;;;-147.77;83.95
52839;BME280;39219;53.678;9.856;2023-05-21T04:19:08;77115.56;;;-147.77;83.39
52839;BME280;39219;53.678;9.856;2023-05-21T04:21:34;77103.41;;;-147.77;83.01
52839;BME280;39219;53.678;9.856;2023-05-21T04:24:01;77079.13;;;-147.77;83.23
52839;BME280;39219;53.678;9.856;2023-05-21T04:26:28;77064.97;;;-147.77;82.33
52839;BME280;39219;53.678;9.856;2023-05-21T04:28:58;77054.84;;;-147.77;82.38
52839;BME280;39219;53.678;9.856;2023-05-21T04:31:28;77048.78;;;-147.77;82.05
52839;BME280;39219;53.678;9.856;2023-05-21T04:33:55;77046.75;;;-147.77;81.54
52839;BME280;39219;53.678;9.856;2023-05-21T04:36:22;77028.56;;;-147.77;81.73
52839;BME280;39219;53.678;9.856;2023-05-21T04:38:48;77014.41;;;-147.77;80.79
52839;BME280;39219;53.678;9.856;2023-05-21T04:41:15;77006.31;;;-147.77;80.43
52839;BME280;39219;53.678;9.856;2023-05-21T04:43:43;77000.22;;;-147.77;80.19
52839;BME280;39219;53.678;9.856;2023-05-21T04:46:09;76986.06;;;-147.77;79.97
52839;BME280;39219;53.678;9.856;2023-05-21T04:48:37;76971.91;;;-147.77;79.98
52839;BME280;39219;53.678;9.856;2023-05-21T04:51:05;76977.97;;;-147.77;79.21
52839;BME280;39219;53.678;9.856;2023-05-21T04:53:31;76984.06;;;-147.77;79.83
52839;BME280;39219;53.678;9.856;2023-05-21T04:56:00;76959.78;;;-147.77;79.71
52839;BME280;39219;53.678;9.856;2023-05-21T04:58:27;76953.69;;;-147.77;79.02
52839;BME280;39219;53.678;9.856;2023-05-21T05:00:53;76933.47;;;-147.77;78.96
52839;BME280;39219;53.678;9.856;2023-05-21T05:03:20;76929.41;;;-147.77;78.11
52839;BME280;39219;53.678;9.856;2023-05-21T05:05:48;76919.31;;;-147.77;78.32
52839;BME280;39219;53.678;9.856;2023-05-21T05:08:15;76882.91;;;-147.77;77.47
52839;BME280;39219;53.678;9.856;2023-05-21T05:10:42;76884.91;;;-147.77;76.63
52839;BME280;39219;53.678;9.856;2023-05-21T05:13:08;76854.56;;;-147.77;76.53
52839;BME280;39219;53.678;9.856;2023-05-21T05:15:36;76844.44;;;-147.77;75.69
52839;BME280;39219;53.678;9.856;2023-05-21T05:18:03;76838.38;;;-147.77;75.94
52839;BME280;39219;53.678;9.856;2023-05-21T05:20:30;76761.50;;;-147.77;75.04
52839;BME280;39219;53.678;9.856;2023-05-21T05:22:58;76662.38;;;-147.77;72.42
52839;BME280;39219;53.678;9.856;2023-05-21T05:25:25;76642.16;;;-147.77;68.86
52839;BME280;39219;53.678;9.856;2023-05-21T05:27:52;76656.31;;;-147.77;69.05
52839;BME280;39219;53.678;9.856;2023-05-21T05:30:18;76674.53;;;-147.77;69.30
52839;BME280;39219;53.678;9.856;2023-05-21T05:32:45;76704.88;;;-147.77;69.24
52839;BME280;39219;53.678;9.856;2023-05-21T05:35:11;76680.59;;;-147.77;70.48
52839;BME280;39219;53.678;9.856;2023-05-21T05:37:38;76664.41;;;-147.77;69.56
52839;BME280;39219;53.678;9.856;2023-05-21T05:40:07;76648.22;;;-147.77;68.67
52839;BME280;39219;53.678;9.856;2023-05-21T05:42:33;76636.09;;;-147.77;69.13
52839;BME280;39219;53.678;9.856;2023-05-21T05:45:00;76575.41;;;-147.77;68.80
52839;BME280;39219;53.678;9.856;2023-05-21T05:47:26;76454.03;;;-147.77;65.64
52839;BME280;39219;53.678;9.856;2023-05-21T05:49:53;76371.09;;;-147.77;60.55
52839;BME280;39219;53.678;9.856;2023-05-21T05:52:19;76367.03;;;-147.77;60.28
52839;BME280;39219;53.678;9.856;2023-05-21T05:54:45;76397.38;;;-147.77;59.66
52839;BME280;39219;53.678;9.856;2023-05-21T05:57:13;76387.28;;;-147.77;59.65
52839;BME280;39219;53.678;9.856;2023-05-21T05:59:40;76383.22;;;-147.77;59.65
52839;BME280;39219;53.678;9.856;2023-05-21T06:02:06;76379.19;;;-147.77;60.20
52839;BME280;39219;53.678;9.856;2023-05-21T06:04:33;76360.97;;;-147.77;59.11
52839;BME280;39219;53.678;9.856;2023-05-21T06:06:59;76354.91;;;-147.77;57.76
52839;BME280;39219;53.678;9.856;2023-05-21T06:09:26;76360.97;;;-147.77;58.93
52839;BME280;39219;53.678;9.856;2023-05-21T06:11:52;76324.56;;;-147.77;58.52
52839;BME280;39219;53.678;9.856;2023-05-21T06:14:20;76334.69;;;-147.77;58.35
52839;BME280;39219;53.678;9.856;2023-05-21T06:16:46;76267.94;;;-147.77;57.56
52839;BME280;39219;53.678;9.856;2023-05-21T06:19:13;76255.78;;;-147.77;55.86
52839;BME280;39219;53.678;9.856;2023-05-21T06:21:39;76235.56;;;-147.77;57.05
52839;BME280;39219;53.678;9.856;2023-05-21T06:24:06;76166.78;;;-147.77;54.63
52839;BME280;39219;53.678;9.856;2023-05-21T06:26:32;76081.84;;;-147.77;54.16
52839;BME280;39219;53.678;9.856;2023-05-21T06:28:59;76002.97;;;-147.77;51.36
52839;BME280;39219;53.678;9.856;2023-05-21T06:31:27;75988.78;;;-147.77;50.50
52839;BME280;39219;53.678;9.856;2023-05-21T06:33:57;75984.75;;;-147.77;49.76
52839;BME280;39219;53.678;9.856;2023-05-21T06:36:24;75980.72;;;-147.77;50.24
52839;BME280;39219;53.678;9.856;2023-05-21T06:38:53;75966.53;;;-147.77;49.64
52839;BME280;39219;53.678;9.856;2023-05-21T06:41:20;75905.88;;;-147.77;49.72
52839;BME280;39219;53.678;9.856;2023-05-21T06:43:47;75938.22;;;-147.77;48.37
52839;BME280;39219;53.678;9.856;2023-05-21T06:46:13;75976.66;;;-147.77;49.15
52839;BME280;39219;53.678;9.856;2023-05-21T06:48:41;75998.91;;;-147.77;48.95
52839;BME280;39219;53.678;9.856;2023-05-21T06:51:07;76041.38;;;-147.77;50.53
52839;BME280;39219;53.678;9.856;2023-05-21T06:53:34;76063.63;;;-147.77;50.48
52839;BME280;39219;53.678;9.856;2023-05-21T06:56:00;76096.00;;;-147.77;52.70
52839;BME280;39219;53.678;9.856;2023-05-21T06:58:27;76102.06;;;-147.77;53.99
52839;BME280;39219;53.678;9.856;2023-05-21T07:00:55;76089.94;;;-147.77;53.92
52839;BME280;39219;53.678;9.856;2023-05-21T07:03:21;76120.28;;;-147.77;54.21
52839;BME280;39219;53.678;9.856;2023-05-21T07:05:49;76174.88;;;-147.77;55.12
52839;BME280;39219;53.678;9.856;2023-05-21T07:08:16;76170.84;;;-147.77;57.08
52839;BME280;39219;53.678;9.856;2023-05-21T07:10:44;76197.13;;;-147.77;56.60
52839;BME280;39219;53.678;9.856;2023-05-21T07:13:10;76189.03;;;-147.77;57.74
52839;BME280;39219;53.678;9.856;2023-05-21T07:15:37;76156.69;;;-147.77;56.33
52839;BME280;39219;53.678;9.856;2023-05-21T07:18:03;76162.75;;;-147.77;57.75
52839;BME280;39219;53.678;9.856;2023-05-21T07:20:30;76174.88;;;-147.77;57.73
52839;BME280;39219;53.678;9.856;2023-05-21T07:22:58;76187.03;;;-147.77;57.74
52839;BME280;39219;53.678;9.856;2023-05-21T07:25:24;76180.94;;;-147.77;57.82
52839;BME280;39219;53.678;9.856;2023-05-21T07:27:51;76142.53;;;-147.77;58.40
52839;BME280;39219;53.678;9.856;2023-05-21T07:30:17;76102.06;;;-147.77;57.93
52839;BME280;39219;53.678;9.856;2023-05-21T07:32:44;76079.81;;;-147.77;56.85
52839;BME280;39219;53.678;9.856;2023-05-21T07:35:11;76118.25;;;-147.77;57.24
52839;BME280;39219;53.678;9.856;2023-05-21T07:37:37;76063.63;;;-147.77;57.08
52839;BME280;39219;53.678;9.856;2023-05-21T07:40:06;76079.81;;;-147.77;56.25
52839;BME280;39219;53.678;9.856;2023-05-21T07:42:34;76079.81;;;-147.77;56.69
52839;BME280;39219;53.678;9.856;2023-05-21T07:45:00;76075.78;;;-147.77;56.53
52839;BME280;39219;53.678;9.856;2023-05-21T07:47:27;76057.56;;;-147.77;56.33
52839;BME280;39219;53.678;9.856;2023-05-21T07:49:53;76061.63;;;-147.77;55.54
52839;BME280;39219;53.678;9.856;2023-05-21T07:52:20;76049.47;;;-147.77;55.40
52839;BME280;39219;53.678;9.856;2023-05-21T07:54:46;76043.41;;;-147.77;56.41
52839;BME280;39219;53.678;9.856;2023-05-21T07:57:14;76069.69;;;-147.77;56.59
52839;BME280;39219;53.678;9.856;2023-05-21T07:59:41;76037.34;;;-147.77;57.18
52839;BME280;39219;53.678;9.856;2023-05-21T08:02:07;76035.31;;;-147.77;57.23
52839;BME280;39219;53.678;9.856;2023-05-21T08:04:34;75994.88;;;-147.77;56.07
52839;BME280;39219;53.678;9.856;2023-05-21T08:07:01;75958.47;;;-147.77;55.88
52839;BME280;39219;53.678;9.856;2023-05-21T08:09:27;75930.13;;;-147.77;54.73
52839;BME280;39219;53.678;9.856;2023-05-21T08:11:54;75926.09;;;-147.77;54.60
52839;BME280;39219;53.678;9.856;2023-05-21T08:14:22;75905.88;;;-147.77;52.63
52839;BME280;39219;53.678;9.856;2023-05-21T08:16:48;75893.72;;;-147.77;53.14
52839;BME280;39219;53.678;9.856;2023-05-21T08:19:15;75911.94;;;-147.77;55.31
52839;BME280;39219;53.678;9.856;2023-05-21T08:21:41;75887.66;;;-147.77;53.11
52839;BME280;39219;53.678;9.856;2023-05-21T08:24:08;75853.28;;;-147.77;53.60
52839;BME280;39219;53.678;9.856;2023-05-21T08:26:34;75849.25;;;-147.77;53.23
52839;BME280;39219;53.678;9.856;2023-05-21T08:29:01;75845.19;;;-147.77;53.44
52839;BME280;39219;53.678;9.856;2023-05-21T08:31:28;75869.47;;;-147.77;53.11
52839;BME280;39219;53.678;9.856;2023-05-21T08:33:55;75875.53;;;-147.77;54.19
52839;BME280;39219;53.678;9.856;2023-05-21T08:36:21;75889.69;;;-147.77;54.31
52839;BME280;39219;53.678;9.856;2023-05-21T08:38:48;75889.69;;;-147.77;54.71
52839;BME280;39219;53.678;9.856;2023-05-21T08:41:15;75853.28;;;-147.77;53.83
52839;BME280;39219;53.678;9.856;2023-05-21T08:43:42;75879.56;;;-147.77;54.40
52839;BME280;39219;53.678;9.856;2023-05-21T08:46:11;75899.81;;;-147.77;54.22
52839;BME280;39219;53.678;9.856;2023-05-21T08:48:39;75905.88;;;-147.77;54.60
52839;BME280;39219;53.678;9.856;2023-05-21T08:51:05;75865.41;;;-147.77;55.93
52839;BME280;39219;53.678;9.856;2023-05-21T08:53:32;75802.72;;;-147.77;54.55
52839;BME280;39219;53.678;9.856;2023-05-21T08:56:00;75798.69;;;-147.77;54.54
52839;BME280;39219;53.678;9.856;2023-05-21T08:58:27;75776.44;;;-147.77;53.77
52839;BME280;39219;53.678;9.856;2023-05-21T09:00:55;75776.44;;;-147.77;52.11
52839;BME280;39219;53.678;9.856;2023-05-21T09:03:22;75792.59;;;-147.77;53.88
52839;BME280;39219;53.678;9.856;2023-05-21T09:05:50;75849.25;;;-147.77;54.76
52839;BME280;39219;53.678;9.856;2023-05-21T09:08:18;75849.25;;;-147.77;55.60
52839;BME280;39219;53.678;9.856;2023-05-21T09:10:47;75867.44;;;-147.77;55.08
52839;BME280;39219;53.678;9.856;2023-05-21T09:13:15;75869.47;;;-147.77;56.01
52839;BME280;39219;53.678;9.856;2023-05-21T09:15:43;75903.84;;;-147.77;55.93
52839;BME280;39219;53.678;9.856;2023-05-21T09:18:09;75887.66;;;-147.77;57.49
52839;BME280;39219;53.678;9.856;2023-05-21T09:20:36;75907.91;;;-147.77;57.52
52839;BME280;39219;53.678;9.856;2023-05-21T09:23:05;75911.94;;;-147.77;58.36
52839;BME280;39219;53.678;9.856;2023-05-21T09:25:36;75897.78;;;-147.77;58.38
52839;BME280;39219;53.678;9.856;2023-05-21T09:28:10;75897.78;;;-147.77;58.21
52839;BME280;39219;53.678;9.856;2023-05-21T09:30:43;75905.88;;;-147.77;58.21
52839;BME280;39219;53.678;9.856;2023-05-21T09:33:09;75895.75;;;-147.77;58.16
52839;BME280;39219;53.678;9.856;2023-05-21T09:35:36;75907.91;;;-147.77;57.75
52839;BME280;39219;53.678;9.856;2023-05-21T09:38:07;75909.91;;;-147.77;58.62
52839;BME280;39219;53.678;9.856;2023-05-21T09:40:34;75911.94;;;-147.77;58.86
52839;BME280;39219;53.678;9.856;2023-05-21T09:43:00;75913.97;;;-147.77;59.60
52839;BME280;39219;53.678;9.856;2023-05-21T09:45:27;75911.94;;;-147.77;60.20
52839;BME280;39219;53.678;9.856;2023-05-21T09:47:54;75913.97;;;-147.77;60.04
52839;BME280;39219;53.678;9.856;2023-05-21T09:50:24;75920.03;;;-147.77;60.13
52839;BME280;39219;53.678;9.856;2023-05-21T09:52:52;75911.94;;;-147.77;60.55
52839;BME280;39219;53.678;9.856;2023-05-21T09:55:22;75875.53;;;-147.77;60.38
52839;BME280;39219;53.678;9.856;2023-05-21T09:57:49;75857.31;;;-147.77;59.56
52839;BME280;39219;53.678;9.856;2023-05-21T10:00:17;75855.31;;;-147.77;58.23
52839;BME280;39219;53.678;9.856;2023-05-21T10:02:44;75816.88;;;-147.77;59.22
52839;BME280;39219;53.678;9.856;2023-05-21T10:05:13;75812.84;;;-147.77;58.29
52839;BME280;39219;53.678;9.856;2023-05-21T10:07:41;75816.88;;;-147.77;57.92
52839;BME280;39219;53.678;9.856;2023-05-21T10:10:12;75798.69;;;-147.77;58.47
52839;BME280;39219;53.678;9.856;2023-05-21T10:12:43;75750.13;;;-147.77;56.71
52839;BME280;39219;53.678;9.856;2023-05-21T10:15:13;75733.97;;;-147.77;55.45
52839;BME280;39219;53.678;9.856;2023-05-21T10:17:41;75776.44;;;-147.77;56.82
52839;BME280;39219;53.678;9.856;2023-05-21T10:20:09;75774.41;;;-147.77;57.20
52839;BME280;39219;53.678;9.856;2023-05-21T10:22:37;75784.53;;;-147.77;57.02
52839;BME280;39219;53.678;9.856;2023-05-21T10:25:06;75748.13;;;-147.77;57.13
52839;BME280;39219;53.678;9.856;2023-05-21T10:27:33;75709.69;;;-147.77;55.82
52839;BME280;39219;53.678;9.856;2023-05-21T10:30:04;75703.63;;;-147.77;55.64
52839;BME280;39219;53.678;9.856;2023-05-21T10:32:31;75679.34;;;-147.77;55.93
52839;BME280;39219;53.678;9.856;2023-05-21T10:34:58;75665.19;;;-147.77;55.24
52839;BME280;39219;53.678;9.856;2023-05-21T10:37:26;75669.22;;;-147.77;55.53
52839;BME280;39219;53.678;9.856;2023-05-21T10:39:53;75679.34;;;-147.77;55.49
52839;BME280;39219;53.678;9.856;2023-05-21T10:42:26;75630.81;;;-147.77;54.86
52839;BME280;39219;53.678;9.856;2023-05-21T10:45:15;75590.38;;;-147.77;53.57
52839;BME280;39219;53.678;9.856;2023-05-21T10:48:01;75598.44;;;-147.77;54.40
52839;BME280;39219;53.678;9.856;2023-05-21T10:50:49;75564.06;;;-147.77;54.12
52839;BME280;39219;53.678;9.856;2023-05-21T10:53:26;75602.50;;;-147.77;54.23
52839;BME280;39219;53.678;9.856;2023-05-21T10:56:07;75598.44;;;-147.77;54.23
52839;BME280;39219;53.678;9.856;2023-05-21T10:58:53;75558.00;;;-147.77;53.67
52839;BME280;39219;53.678;9.856;2023-05-21T11:01:30;75533.72;;;-147.77;52.12
52839;BME280;39219;53.678;9.856;2023-05-21T11:03:59;75497.34;;;-147.77;52.68
52839;BME280;39219;53.678;9.856;2023-05-21T11:06:26;75515.53;;;-147.77;51.99
52839;BME280;39219;53.678;9.856;2023-05-21T11:08:53;75529.69;;;-147.77;52.69
52839;BME280;39219;53.678;9.856;2023-05-21T11:11:41;75539.81;;;-147.77;52.72
52839;BME280;39219;53.678;9.856;2023-05-21T11:14:30;75566.09;;;-147.77;52.78
52839;BME280;39219;53.678;9.856;2023-05-21T11:17:01;75562.03;;;-147.77;52.86
52839;BME280;39219;53.678;9.856;2023-05-21T11:19:35;75541.81;;;-147.77;53.54
52839;BME280;39219;53.678;9.856;2023-05-21T11:22:09;75551.94;;;-147.77;53.15
52839;BME280;39219;53.678;9.856;2023-05-21T11:24:46;75521.59;;;-147.77;52.33
52839;BME280;39219;53.678;9.856;2023-05-21T11:27:12;75495.31;;;-147.77;52.46
52839;BME280;39219;53.678;9.856;2023-05-21T11:29:43;75471.03;;;-147.77;51.56
52839;BME280;39219;53.678;9.856;2023-05-21T11:32:13;75454.88;;;-147.77;51.80
52839;BME280;39219;53.678;9.856;2023-05-21T11:34:42;75479.13;;;-147.77;51.46
52839;BME280;39219;53.678;9.856;2023-05-21T11:37:30;75464.97;;;-147.77;51.80
52839;BME280;39219;53.678;9.856;2023-05-21T11:40:16;75428.56;;;-147.77;51.20
52839;BME280;39219;53.678;9.856;2023-05-21T11:42:44;75475.09;;;-147.77;51.32
52839;BME280;39219;53.678;9.856;2023-05-21T11:45:16;75525.66;;;-147.77;52.63
52839;BME280;39219;53.678;9.856;2023-05-21T11:47:44;75513.50;;;-147.77;52.65
52839;BME280;39219;53.678;9.856;2023-05-21T11:50:12;75511.50;;;-147.77;52.64
52839;BME280;39219;53.678;9.856;2023-05-21T11:52:39;75501.38;;;-147.77;52.04
52839;BME280;39219;53.678;9.856;2023-05-21T11:55:06;75491.25;;;-147.77;52.70
52839;BME280;39219;53.678;9.856;2023-05-21T11:57:33;75477.09;;;-147.77;51.99
52839;BME280;39219;53.678;9.856;2023-05-21T12:00:01;75436.66;;;-147.77;51.78
52839;BME280;39219;53.678;9.856;2023-05-21T12:02:36;75420.47;;;-147.77;50.33
52839;BME280;39219;53.678;9.856;2023-05-21T12:05:05;75414.41;;;-147.77;51.91
52839;BME280;39219;53.678;9.856;2023-05-21T12:07:33;75406.31;;;-147.77;51.36
52839;BME280;39219;53.678;9.856;2023-05-21T12:10:00;75420.47;;;-147.77;51.08
52839;BME280;39219;53.678;9.856;2023-05-21T12:12:27;75418.47;;;-147.77;51.00
52839;BME280;39219;53.678;9.856;2023-05-21T12:14:54;75432.63;;;-147.77;51.73
52839;BME280;39219;53.678;9.856;2023-05-21T12:17:22;75452.84;;;-147.77;51.17
52839;BME280;39219;53.678;9.856;2023-05-21T12:19:50;75491.25;;;-147.77;52.39
52839;BME280;39219;53.678;9.856;2023-05-21T12:22:18;75525.66;;;-147.77;53.56
52839;BME280;39219;53.678;9.856;2023-05-21T12:24:45;75505.41;;;-147.77;54.41
52839;BME280;39219;53.678;9.856;2023-05-21T12:27:12;75487.22;;;-147.77;53.42
52839;BME280;39219;53.678;9.856;2023-05-21T12:29:42;75491.25;;;-147.77;54.09
52839;BME280;39219;53.678;9.856;2023-05-21T12:32:10;75446.78;;;-147.77;52.81
52839;BME280;39219;53.678;9.856;2023-05-21T12:34:38;75444.75;;;-147.77;53.12
52839;BME280;39219;53.678;9.856;2023-05-21T12:37:06;75414.41;;;-147.77;52.31
52839;BME280;39219;53.678;9.856;2023-05-21T12:39:38;75400.25;;;-147.77;53.11
52839;BME280;39219;53.678;9.856;2023-05-21T12:42:05;75363.84;;;-147.77;51.91
52839;BME280;39219;53.678;9.856;2023-05-21T12:44:31;75357.78;;;-147.77;50.45